createdAt,value
2018-10-16T00:00:17.801Z,13.36
2018-10-16T00:01:17.802Z,13.32
2018-10-16T00:02:17.811Z,13.29
2018-10-16T00:03:18.283Z,13.29
2018-10-16T00:04:17.858Z,13.25
2018-10-16T00:05:17.997Z,13.27
2018-10-16T00:06:17.892Z,13.29
2018-10-16T00:07:17.855Z,13.29
2018-10-16T00:08:17.999Z,13.27
2018-10-16T00:09:17.781Z,13.25
2018-10-16T00:10:18.012Z,13.28
2018-10-16T00:11:17.815Z,13.27
2018-10-16T00:12:18.025Z,13.27
2018-10-16T00:13:18.236Z,13.25
2018-10-16T00:14:17.705Z,13.28
2018-10-16T00:15:17.933Z,13.24
2018-10-16T00:16:17.948Z,13.21
2018-10-16T00:17:17.791Z,13.21
2018-10-16T00:18:18.205Z,13.17
2018-10-16T00:19:18.197Z,13.17
2018-10-16T00:20:17.824Z,13.15
2018-10-16T00:21:18.006Z,13.18
2018-10-16T00:22:17.882Z,13.17
2018-10-16T00:23:17.963Z,13.15
2018-10-16T00:24:17.996Z,13.13
2018-10-16T00:25:17.870Z,13.1
2018-10-16T00:26:17.845Z,13.08
2018-10-16T00:27:17.860Z,13.07
2018-10-16T00:28:17.956Z,13.08
2018-10-16T00:29:17.783Z,13.08
2018-10-16T00:30:17.840Z,13.06
2018-10-16T00:31:17.890Z,13.06
2018-10-16T00:32:17.803Z,13.04
2018-10-16T00:33:18.175Z,13.07
2018-10-16T00:34:17.953Z,13.1
2018-10-16T00:35:17.919Z,13.1
2018-10-16T00:36:17.757Z,13.1
2018-10-16T00:37:17.908Z,13.07
2018-10-16T00:38:17.972Z,13.06
2018-10-16T00:39:17.832Z,13.04
2018-10-16T00:40:18.098Z,13.01
2018-10-16T00:41:17.989Z,13.01
2018-10-16T00:42:18.210Z,12.99
2018-10-16T00:43:17.966Z,12.99
2018-10-16T00:44:17.863Z,12.96
2018-10-16T00:45:17.975Z,12.97
2018-10-16T00:46:17.764Z,12.91
2018-10-16T00:47:18.057Z,12.93
2018-10-16T00:48:17.868Z,12.91
2018-10-16T00:49:17.773Z,12.91
2018-10-16T00:50:18.424Z,12.91
2018-10-16T00:51:17.822Z,12.9
2018-10-16T00:52:17.810Z,12.9
2018-10-16T00:53:18.232Z,12.88
2018-10-16T00:54:17.999Z,12.87
2018-10-16T00:55:17.753Z,12.84
2018-10-16T00:56:17.862Z,12.84
2018-10-16T00:57:17.735Z,12.82
2018-10-16T00:58:17.883Z,12.79
2018-10-16T00:59:17.728Z,12.76
2018-10-16T01:00:17.690Z,12.79
2018-10-16T01:01:17.751Z,12.76
2018-10-16T01:02:17.802Z,12.76
2018-10-16T01:03:17.796Z,12.73
2018-10-16T01:04:17.816Z,12.72
2018-10-16T01:05:17.837Z,12.7
2018-10-16T01:06:17.829Z,12.72
2018-10-16T01:07:17.786Z,12.69
2018-10-16T01:08:17.836Z,12.67
2018-10-16T01:09:17.749Z,12.66
2018-10-16T01:10:17.741Z,12.66
2018-10-16T01:11:18.011Z,12.62
2018-10-16T01:12:17.789Z,12.62
2018-10-16T01:13:18.294Z,12.59
2018-10-16T01:14:17.768Z,12.57
2018-10-16T01:15:17.806Z,12.56
2018-10-16T01:16:17.886Z,12.55
2018-10-16T01:17:17.744Z,12.52
2018-10-16T01:18:17.745Z,12.51
2018-10-16T01:19:17.777Z,12.49
2018-10-16T01:20:17.702Z,12.52
2018-10-16T01:21:17.917Z,12.52
2018-10-16T01:22:17.894Z,12.46
2018-10-16T01:23:17.687Z,12.49
2018-10-16T01:24:17.742Z,12.45
2018-10-16T01:25:17.755Z,12.48
2018-10-16T01:26:17.790Z,12.45
2018-10-16T01:27:18.095Z,12.48
2018-10-16T01:28:17.846Z,12.48
2018-10-16T01:29:17.739Z,12.49
2018-10-16T01:30:17.793Z,12.45
2018-10-16T01:31:17.952Z,12.45
2018-10-16T01:32:18.024Z,12.44
2018-10-16T01:33:18.154Z,12.42
2018-10-16T01:34:17.732Z,12.41
2018-10-16T01:35:17.802Z,12.42
2018-10-16T01:36:17.721Z,12.42
2018-10-16T01:37:17.871Z,12.39
2018-10-16T01:38:17.894Z,12.37
2018-10-16T01:39:17.690Z,12.34
2018-10-16T01:40:17.770Z,12.34
2018-10-16T01:41:17.642Z,12.32
2018-10-16T01:42:17.783Z,12.32
2018-10-16T01:43:17.782Z,12.31
2018-10-16T01:44:17.846Z,12.32
2018-10-16T01:45:17.779Z,12.28
2018-10-16T01:46:17.786Z,12.29
2018-10-16T01:47:17.759Z,12.27
2018-10-16T01:48:17.658Z,12.25
2018-10-16T01:49:17.699Z,12.24
2018-10-16T01:50:17.774Z,12.2
2018-10-16T01:51:17.690Z,12.18
2018-10-16T01:52:17.813Z,12.2
2018-10-16T01:53:17.693Z,12.21
2018-10-16T01:54:17.713Z,12.2
2018-10-16T01:55:17.864Z,12.18
2018-10-16T01:56:17.772Z,12.21
2018-10-16T01:57:17.720Z,12.23
2018-10-16T01:58:18.029Z,12.21
2018-10-16T01:59:17.667Z,12.21
2018-10-16T02:00:17.648Z,12.17
2018-10-16T02:01:17.854Z,12.17
2018-10-16T02:02:17.624Z,12.11
2018-10-16T02:03:17.651Z,12.07
2018-10-16T02:04:17.701Z,12.01
2018-10-16T02:05:17.655Z,12.01
2018-10-16T02:06:17.716Z,11.98
2018-10-16T02:07:17.746Z,11.98
2018-10-16T02:08:17.670Z,11.97
2018-10-16T02:09:18.299Z,12
2018-10-16T02:10:17.759Z,11.98
2018-10-16T02:11:17.735Z,12
2018-10-16T02:12:17.628Z,12.03
2018-10-16T02:13:17.735Z,12.01
2018-10-16T02:14:17.691Z,12
2018-10-16T02:15:17.648Z,12.01
2018-10-16T02:16:17.857Z,11.98
2018-10-16T02:17:17.988Z,11.93
2018-10-16T02:18:18.071Z,11.84
2018-10-16T02:19:17.644Z,11.84
2018-10-16T02:20:17.672Z,11.84
2018-10-16T02:21:17.697Z,11.82
2018-10-16T02:22:17.843Z,11.76
2018-10-16T02:23:17.751Z,11.72
2018-10-16T02:24:17.765Z,11.64
2018-10-16T02:25:17.898Z,11.59
2018-10-16T02:26:17.743Z,11.64
2018-10-16T02:27:17.618Z,11.66
2018-10-16T02:28:17.649Z,11.65
2018-10-16T02:29:17.942Z,11.61
2018-10-16T02:30:17.941Z,11.58
2018-10-16T02:31:17.607Z,11.58
2018-10-16T02:32:17.600Z,11.56
2018-10-16T02:33:17.593Z,11.54
2018-10-16T02:34:17.618Z,11.51
2018-10-16T02:35:17.701Z,11.54
2018-10-16T02:36:17.691Z,11.54
2018-10-16T02:37:17.645Z,11.56
2018-10-16T02:38:17.558Z,11.58
2018-10-16T02:39:17.846Z,11.59
2018-10-16T02:40:17.607Z,11.59
2018-10-16T02:41:17.556Z,11.58
2018-10-16T02:42:17.618Z,11.56
2018-10-16T02:43:17.644Z,11.61
2018-10-16T02:44:17.676Z,11.61
2018-10-16T02:45:17.663Z,11.59
2018-10-16T02:46:17.615Z,11.59
2018-10-16T02:47:17.608Z,11.59
2018-10-16T02:48:17.659Z,11.59
2018-10-16T02:49:17.863Z,11.55
2018-10-16T02:50:17.603Z,11.52
2018-10-16T02:51:17.642Z,11.52
2018-10-16T02:52:17.653Z,11.52
2018-10-16T02:53:18.029Z,11.55
2018-10-16T02:54:17.670Z,11.54
2018-10-16T02:55:17.662Z,11.56
2018-10-16T02:56:17.674Z,11.54
2018-10-16T02:57:17.630Z,11.54
2018-10-16T02:58:17.823Z,11.54
2018-10-16T02:59:17.761Z,11.52
2018-10-16T03:00:17.677Z,11.54
2018-10-16T03:01:17.584Z,11.52
2018-10-16T03:02:17.794Z,11.55
2018-10-16T03:03:17.621Z,11.56
2018-10-16T03:04:17.571Z,11.58
2018-10-16T03:05:18.596Z,11.55
2018-10-16T03:06:17.656Z,11.54
2018-10-16T03:07:17.981Z,11.52
2018-10-16T03:08:17.630Z,11.49
2018-10-16T03:09:17.732Z,11.49
2018-10-16T03:10:17.677Z,11.44
2018-10-16T03:11:17.747Z,11.47
2018-10-16T03:12:17.722Z,11.45
2018-10-16T03:13:17.628Z,11.45
2018-10-16T03:14:17.662Z,11.45
2018-10-16T03:15:17.635Z,11.49
2018-10-16T03:16:17.787Z,11.51
2018-10-16T03:17:17.750Z,11.49
2018-10-16T03:18:17.707Z,11.48
2018-10-16T03:19:17.709Z,11.49
2018-10-16T03:20:17.942Z,11.51
2018-10-16T03:21:17.987Z,11.49
2018-10-16T03:22:18.032Z,11.48
2018-10-16T03:24:18.043Z,11.48
2018-10-16T03:25:17.641Z,11.47
2018-10-16T03:26:17.549Z,11.44
2018-10-16T03:27:17.561Z,11.42
2018-10-16T03:28:17.486Z,11.41
2018-10-16T03:29:17.606Z,11.41
2018-10-16T03:30:17.604Z,11.39
2018-10-16T03:31:17.485Z,11.38
2018-10-16T03:32:17.657Z,11.38
2018-10-16T03:33:17.613Z,11.35
2018-10-16T03:34:17.467Z,11.34
2018-10-16T03:35:17.432Z,11.32
2018-10-16T03:36:17.432Z,11.31
2018-10-16T03:37:17.561Z,11.31
2018-10-16T03:38:17.702Z,11.31
2018-10-16T03:39:17.439Z,11.28
2018-10-16T03:40:17.468Z,11.27
2018-10-16T03:41:17.473Z,11.28
2018-10-16T03:42:17.525Z,11.27
2018-10-16T03:43:17.459Z,11.27
2018-10-16T03:44:17.436Z,11.24
2018-10-16T03:45:17.444Z,11.25
2018-10-16T03:46:17.503Z,11.25
2018-10-16T03:47:17.422Z,11.28
2018-10-16T03:48:17.511Z,11.25
2018-10-16T03:49:17.643Z,11.27
2018-10-16T03:50:17.438Z,11.27
2018-10-16T03:51:17.455Z,11.25
2018-10-16T03:52:17.450Z,11.28
2018-10-16T03:53:18.013Z,11.27
2018-10-16T03:54:17.501Z,11.31
2018-10-16T03:55:17.438Z,11.3
2018-10-16T03:56:17.580Z,11.32
2018-10-16T03:57:17.691Z,11.35
2018-10-16T03:58:17.481Z,11.35
2018-10-16T03:59:17.434Z,11.39
2018-10-16T04:00:17.412Z,11.39
2018-10-16T04:01:17.450Z,11.38
2018-10-16T04:02:17.475Z,11.38
2018-10-16T04:03:17.553Z,11.39
2018-10-16T04:04:17.413Z,11.37
2018-10-16T04:05:17.402Z,11.38
2018-10-16T04:06:17.394Z,11.38
2018-10-16T04:07:17.618Z,11.37
2018-10-16T04:08:17.617Z,11.37
2018-10-16T04:09:17.413Z,11.34
2018-10-16T04:10:17.383Z,11.32
2018-10-16T04:11:17.417Z,11.32
2018-10-16T04:12:17.391Z,11.34
2018-10-16T04:13:17.444Z,11.32
2018-10-16T04:14:17.440Z,11.35
2018-10-16T04:15:17.516Z,11.34
2018-10-16T04:16:17.444Z,11.34
2018-10-16T04:17:17.499Z,11.37
2018-10-16T04:18:17.332Z,11.37
2018-10-16T04:19:17.482Z,11.39
2018-10-16T04:20:17.382Z,11.42
2018-10-16T04:21:17.734Z,11.45
2018-10-16T04:22:17.770Z,11.45
2018-10-16T04:23:17.442Z,11.39
2018-10-16T04:24:17.364Z,11.42
2018-10-16T04:25:17.482Z,11.42
2018-10-16T04:26:17.431Z,11.38
2018-10-16T04:27:17.398Z,11.38
2018-10-16T04:28:17.776Z,11.38
2018-10-16T04:29:17.692Z,11.35
2018-10-16T04:30:17.419Z,11.34
2018-10-16T04:31:17.420Z,11.34
2018-10-16T04:32:17.391Z,11.34
2018-10-16T04:33:17.392Z,11.32
2018-10-16T04:34:17.415Z,11.34
2018-10-16T04:35:17.393Z,11.34
2018-10-16T04:36:17.509Z,11.32
2018-10-16T04:37:17.489Z,11.31
2018-10-16T04:38:18.488Z,11.28
2018-10-16T04:39:17.487Z,11.28
2018-10-16T04:40:17.429Z,11.24
2018-10-16T04:41:17.639Z,11.2
2018-10-16T04:42:17.374Z,11.2
2018-10-16T04:43:17.407Z,11.18
2018-10-16T04:44:17.408Z,11.14
2018-10-16T04:46:17.359Z,11.11
2018-10-16T04:47:17.370Z,11.08
2018-10-16T04:48:17.377Z,11.11
2018-10-16T04:49:17.346Z,11.08
2018-10-16T04:50:17.427Z,11.04
2018-10-16T04:51:17.400Z,11.03
2018-10-16T04:52:17.376Z,11.03
2018-10-16T04:53:17.318Z,11
2018-10-16T04:54:17.637Z,11
2018-10-16T04:55:18.107Z,10.99
2018-10-16T04:56:17.421Z,10.99
2018-10-16T04:57:17.377Z,10.99
2018-10-16T04:58:17.304Z,10.96
2018-10-16T04:59:17.465Z,10.96
2018-10-16T05:00:17.302Z,10.94
2018-10-16T05:01:17.578Z,10.93
2018-10-16T05:02:17.357Z,10.93
2018-10-16T05:03:17.323Z,10.92
2018-10-16T05:04:18.034Z,10.87
2018-10-16T05:05:17.360Z,10.84
2018-10-16T05:07:17.340Z,10.69
2018-10-16T05:08:17.354Z,10.66
2018-10-16T05:09:17.376Z,10.61
2018-10-16T05:10:17.398Z,10.66
2018-10-16T05:11:17.643Z,10.69
2018-10-16T05:12:17.301Z,10.73
2018-10-16T05:13:17.817Z,10.78
2018-10-16T05:14:17.397Z,10.8
2018-10-16T05:15:17.626Z,10.84
2018-10-16T05:16:17.619Z,10.89
2018-10-16T05:17:17.480Z,10.87
2018-10-16T05:18:17.349Z,10.8
2018-10-16T05:19:18.121Z,10.75
2018-10-16T05:20:17.409Z,10.66
2018-10-16T05:21:17.318Z,10.59
2018-10-16T05:22:17.425Z,10.53
2018-10-16T05:23:17.692Z,10.42
2018-10-16T05:24:17.345Z,10.3
2018-10-16T05:25:17.363Z,10.07
2018-10-16T05:26:17.375Z,9.96
2018-10-16T05:27:17.440Z,9.75
2018-10-16T05:28:17.531Z,9.83
2018-10-16T05:29:17.373Z,9.73
2018-10-16T05:30:17.301Z,9.65
2018-10-16T05:31:17.936Z,9.76
2018-10-16T05:32:17.590Z,9.88
2018-10-16T05:33:41.696Z,9.99
2018-10-16T05:34:41.720Z,10.03
2018-10-16T05:35:41.784Z,10.06
2018-10-16T05:36:41.625Z,10.09
2018-10-16T05:37:41.660Z,10.06
2018-10-16T05:38:41.632Z,10.09
2018-10-16T05:39:42.024Z,10.16
2018-10-16T05:40:41.614Z,10.19
2018-10-16T05:41:41.665Z,10.23
2018-10-16T05:42:41.632Z,10.3
2018-10-16T05:43:41.637Z,10.35
2018-10-16T05:44:42.002Z,10.38
2018-10-16T05:45:41.653Z,10.45
2018-10-16T05:46:41.843Z,10.47
2018-10-16T05:47:41.740Z,10.47
2018-10-16T05:48:41.775Z,10.52
2018-10-16T05:49:41.679Z,10.52
2018-10-16T05:50:41.806Z,10.53
2018-10-16T05:51:42.054Z,10.55
2018-10-16T05:52:41.794Z,10.55
2018-10-16T05:53:41.635Z,10.56
2018-10-16T05:54:41.667Z,10.58
2018-10-16T05:55:41.824Z,10.56
2018-10-16T05:56:41.726Z,10.56
2018-10-16T05:57:41.789Z,10.58
2018-10-16T05:58:41.735Z,10.56
2018-10-16T05:59:41.771Z,10.58
2018-10-16T06:00:41.594Z,10.58
2018-10-16T06:01:41.684Z,10.59
2018-10-16T06:02:42.172Z,10.61
2018-10-16T06:03:41.645Z,10.65
2018-10-16T06:04:41.639Z,10.65
2018-10-16T06:05:41.959Z,10.64
2018-10-16T06:06:41.661Z,10.66
2018-10-16T06:07:41.651Z,10.68
2018-10-16T06:08:41.752Z,10.68
2018-10-16T06:09:41.622Z,10.71
2018-10-16T06:10:41.801Z,10.69
2018-10-16T06:11:41.802Z,10.66
2018-10-16T06:12:41.643Z,10.69
2018-10-16T06:13:41.701Z,10.68
2018-10-16T06:14:41.839Z,10.68
2018-10-16T06:15:41.581Z,10.66
2018-10-16T06:16:41.593Z,10.68
2018-10-16T06:17:41.569Z,10.65
2018-10-16T06:18:42.022Z,10.58
2018-10-16T06:19:41.685Z,10.61
2018-10-16T06:20:41.642Z,10.59
2018-10-16T06:21:41.760Z,10.61
2018-10-16T06:22:41.660Z,10.62
2018-10-16T06:23:41.611Z,10.64
2018-10-16T06:24:41.586Z,10.65
2018-10-16T06:25:41.618Z,10.68
2018-10-16T06:26:41.934Z,10.71
2018-10-16T06:27:41.934Z,10.75
2018-10-16T06:28:41.679Z,10.79
2018-10-16T06:29:41.726Z,10.84
2018-10-16T06:30:41.962Z,10.89
2018-10-16T06:31:41.600Z,10.87
2018-10-16T06:32:41.696Z,10.87
2018-10-16T06:33:41.778Z,10.87
2018-10-16T06:34:41.780Z,10.86
2018-10-16T06:35:41.659Z,10.86
2018-10-16T06:36:41.735Z,10.87
2018-10-16T06:37:41.936Z,10.89
2018-10-16T06:38:41.611Z,10.9
2018-10-16T06:39:41.610Z,10.92
2018-10-16T06:40:42.049Z,10.92
2018-10-16T06:41:41.948Z,10.94
2018-10-16T06:42:41.834Z,10.97
2018-10-16T06:43:41.855Z,10.97
2018-10-16T06:44:42.002Z,10.96
2018-10-16T06:45:41.603Z,11
2018-10-16T06:46:42.375Z,11
2018-10-16T06:47:42.133Z,11.04
2018-10-16T06:48:43.685Z,11.06
2018-10-16T06:49:41.567Z,11.07
2018-10-16T06:50:41.531Z,11.11
2018-10-16T06:51:41.525Z,11.11
2018-10-16T06:52:41.566Z,11.14
2018-10-16T06:53:41.596Z,11.12
2018-10-16T06:54:41.715Z,11.18
2018-10-16T06:55:41.517Z,11.18
2018-10-16T06:56:41.597Z,11.21
2018-10-16T06:57:41.579Z,11.22
2018-10-16T06:58:41.540Z,11.25
2018-10-16T06:59:41.580Z,11.24
2018-10-16T07:00:41.580Z,11.27
2018-10-16T07:01:41.552Z,11.28
2018-10-16T07:02:41.545Z,11.34
2018-10-16T07:03:41.524Z,11.37
2018-10-16T07:04:41.543Z,11.38
2018-10-16T07:05:41.549Z,11.41
2018-10-16T07:06:41.657Z,11.44
2018-10-16T07:07:41.564Z,11.48
2018-10-16T07:08:41.817Z,11.51
2018-10-16T07:09:41.816Z,11.54
2018-10-16T07:10:41.546Z,11.54
2018-10-16T07:11:41.631Z,11.58
2018-10-16T07:12:41.502Z,11.56
2018-10-16T07:13:41.507Z,11.62
2018-10-16T07:14:41.676Z,11.62
2018-10-16T07:15:41.636Z,11.66
2018-10-16T07:17:41.499Z,11.7
2018-10-16T07:18:41.555Z,11.76
2018-10-16T07:19:41.567Z,11.76
2018-10-16T07:20:41.684Z,11.77
2018-10-16T07:21:41.977Z,11.82
2018-10-16T07:22:41.546Z,11.83
2018-10-16T07:23:41.839Z,11.84
2018-10-16T07:24:41.569Z,11.86
2018-10-16T07:25:41.580Z,11.9
2018-10-16T07:26:41.558Z,11.94
2018-10-16T07:27:41.710Z,11.96
2018-10-16T07:28:41.538Z,11.98
2018-10-16T07:29:41.488Z,12
2018-10-16T07:30:41.659Z,12.03
2018-10-16T07:31:41.547Z,12.04
2018-10-16T07:32:41.772Z,12.05
2018-10-16T07:33:41.606Z,12.08
2018-10-16T07:34:41.552Z,12.13
2018-10-16T07:35:41.894Z,12.17
2018-10-16T07:36:41.866Z,12.2
2018-10-16T07:37:41.664Z,12.21
2018-10-16T07:38:41.713Z,12.23
2018-10-16T07:39:41.816Z,12.25
2018-10-16T07:40:41.499Z,12.28
2018-10-16T07:41:41.533Z,12.25
2018-10-16T07:42:41.605Z,12.24
2018-10-16T07:43:41.474Z,12.25
2018-10-16T07:44:41.613Z,12.27
2018-10-16T07:45:41.483Z,12.29
2018-10-16T07:46:41.456Z,12.34
2018-10-16T07:47:41.519Z,12.37
2018-10-16T07:48:42.298Z,12.41
2018-10-16T07:49:41.467Z,12.42
2018-10-16T07:50:41.538Z,12.41
2018-10-16T07:51:41.468Z,12.44
2018-10-16T07:52:41.465Z,12.48
2018-10-16T07:53:41.553Z,12.52
2018-10-16T07:54:41.530Z,12.55
2018-10-16T07:55:41.717Z,12.51
2018-10-16T07:56:41.505Z,12.51
2018-10-16T07:57:41.680Z,12.48
2018-10-16T07:58:41.503Z,12.51
2018-10-16T07:59:41.627Z,12.51
2018-10-16T08:00:41.635Z,12.53
2018-10-16T08:01:41.834Z,12.56
2018-10-16T08:02:41.587Z,12.6
2018-10-16T08:03:41.531Z,12.62
2018-10-16T08:04:41.458Z,12.67
2018-10-16T08:05:41.533Z,12.72
2018-10-16T08:06:41.696Z,12.74
2018-10-16T08:07:41.475Z,12.72
2018-10-16T08:08:41.604Z,12.77
2018-10-16T08:09:41.557Z,12.76
2018-10-16T08:11:41.620Z,12.82
2018-10-16T08:12:42.162Z,12.82
2018-10-16T08:13:41.625Z,12.86
2018-10-16T08:14:41.515Z,12.9
2018-10-16T08:15:41.556Z,12.91
2018-10-16T08:16:41.588Z,12.88
2018-10-16T08:17:41.484Z,12.94
2018-10-16T08:18:41.667Z,12.96
2018-10-16T08:19:41.516Z,13.01
2018-10-16T08:20:41.419Z,13.03
2018-10-16T08:21:41.902Z,13.07
2018-10-16T08:22:41.477Z,13.13
2018-10-16T08:23:41.455Z,13.15
2018-10-16T08:24:41.491Z,13.18
2018-10-16T08:25:41.436Z,13.22
2018-10-16T08:26:41.538Z,13.24
2018-10-16T08:27:41.464Z,13.28
2018-10-16T08:29:41.412Z,13.35
2018-10-16T08:30:41.702Z,13.41
2018-10-16T08:31:41.402Z,13.41
2018-10-16T08:32:41.419Z,13.42
2018-10-16T08:33:41.398Z,13.47
2018-10-16T08:34:41.471Z,13.47
2018-10-16T08:35:41.503Z,13.52
2018-10-16T08:36:41.792Z,13.55
2018-10-16T08:37:41.403Z,13.57
2018-10-16T08:38:41.380Z,13.59
2018-10-16T08:39:41.404Z,13.62
2018-10-16T08:40:41.418Z,13.62
2018-10-16T08:41:41.499Z,13.66
2018-10-16T08:42:41.805Z,13.67
2018-10-16T08:43:41.437Z,13.67
2018-10-16T08:44:41.827Z,13.72
2018-10-16T08:45:41.556Z,13.74
2018-10-16T08:46:41.523Z,13.8
2018-10-16T08:47:42.272Z,13.82
2018-10-16T08:48:41.678Z,13.86
2018-10-16T08:49:41.528Z,13.9
2018-10-16T08:50:41.427Z,13.91
2018-10-16T08:51:41.403Z,14
2018-10-16T08:52:41.394Z,14.04
2018-10-16T08:53:41.614Z,14.08
2018-10-16T08:54:41.574Z,14.12
2018-10-16T08:55:41.528Z,14.15
2018-10-16T08:56:41.440Z,14.17
2018-10-16T08:57:41.428Z,14.18
2018-10-16T08:58:41.435Z,14.22
2018-10-16T08:59:41.403Z,14.25
2018-10-16T09:00:41.462Z,14.31
2018-10-16T09:01:41.465Z,14.33
2018-10-16T09:02:41.539Z,14.38
2018-10-16T09:03:41.401Z,14.39
2018-10-16T09:04:41.777Z,14.43
2018-10-16T09:05:41.385Z,14.49
2018-10-16T09:06:41.719Z,14.52
2018-10-16T09:07:41.392Z,14.56
2018-10-16T09:08:41.617Z,14.56
2018-10-16T09:09:41.445Z,14.63
2018-10-16T09:10:41.637Z,14.66
2018-10-16T09:11:41.491Z,14.69
2018-10-16T09:12:41.362Z,14.73
2018-10-16T09:13:41.395Z,14.76
2018-10-16T09:14:41.426Z,14.76
2018-10-16T09:15:41.404Z,14.74
2018-10-16T09:16:41.377Z,14.8
2018-10-16T09:17:41.431Z,14.83
2018-10-16T09:18:41.454Z,14.84
2018-10-16T09:19:41.753Z,14.87
2018-10-16T09:20:41.421Z,14.91
2018-10-16T09:21:41.365Z,14.95
2018-10-16T09:22:41.329Z,15
2018-10-16T09:23:41.379Z,15.05
2018-10-16T09:24:41.828Z,15.12
2018-10-16T09:25:41.825Z,15.15
2018-10-16T09:26:41.386Z,15.28
2018-10-16T09:27:41.538Z,15.35
2018-10-16T09:28:41.309Z,15.42
2018-10-16T09:29:41.333Z,15.46
2018-10-16T09:30:41.607Z,15.54
2018-10-16T09:31:41.347Z,15.62
2018-10-16T09:32:41.353Z,15.66
2018-10-16T09:33:41.668Z,15.69
2018-10-16T09:34:41.324Z,15.69
2018-10-16T09:35:41.326Z,15.71
2018-10-16T09:36:41.373Z,15.78
2018-10-16T09:37:42.193Z,15.76
2018-10-16T09:38:41.602Z,15.81
2018-10-16T09:39:41.386Z,15.84
2018-10-16T09:40:41.382Z,15.9
2018-10-16T09:41:41.374Z,15.92
2018-10-16T09:42:41.511Z,16.01
2018-10-16T09:43:41.515Z,16.01
2018-10-16T09:44:41.530Z,16.08
2018-10-16T09:45:41.545Z,16.11
2018-10-16T09:46:41.542Z,16.18
2018-10-16T09:47:42.240Z,16.22
2018-10-16T09:48:41.654Z,16.28
2018-10-16T09:49:41.873Z,16.32
2018-10-16T09:50:41.457Z,16.36
2018-10-16T09:51:41.389Z,16.42
2018-10-16T09:52:41.772Z,16.47
2018-10-16T09:53:41.327Z,16.47
2018-10-16T09:54:41.301Z,16.42
2018-10-16T09:55:41.395Z,16.42
2018-10-16T09:56:41.418Z,16.43
2018-10-16T09:57:41.718Z,16.43
2018-10-16T09:58:41.297Z,16.45
2018-10-16T09:59:41.422Z,16.47
2018-10-16T10:00:41.473Z,16.49
2018-10-16T10:01:41.441Z,16.5
2018-10-16T10:02:41.450Z,16.62
2018-10-16T10:03:41.457Z,16.64
2018-10-16T10:04:41.456Z,16.67
2018-10-16T10:05:41.361Z,16.75
2018-10-16T10:06:41.370Z,16.81
2018-10-16T10:07:41.382Z,16.88
2018-10-16T10:08:41.473Z,16.94
2018-10-16T10:09:41.389Z,16.98
2018-10-16T10:10:41.282Z,17.01
2018-10-16T10:11:41.340Z,17.05
2018-10-16T10:12:41.513Z,17.09
2018-10-16T10:13:41.286Z,17.14
2018-10-16T10:14:41.470Z,17.14
2018-10-16T10:15:41.311Z,17.23
2018-10-16T10:16:41.559Z,17.25
2018-10-16T10:17:41.340Z,17.25
2018-10-16T10:18:41.433Z,17.27
2018-10-16T10:19:41.589Z,17.27
2018-10-16T10:20:41.386Z,17.3
2018-10-16T10:21:41.355Z,17.3
2018-10-16T10:22:41.294Z,17.33
2018-10-16T10:23:41.293Z,17.32
2018-10-16T10:24:41.262Z,17.32
2018-10-16T10:25:41.276Z,17.36
2018-10-16T10:26:41.283Z,17.4
2018-10-16T10:27:41.424Z,17.35
2018-10-16T10:28:41.336Z,17.42
2018-10-16T10:29:41.647Z,17.43
2018-10-16T10:30:41.642Z,17.46
2018-10-16T10:31:41.302Z,17.47
2018-10-16T10:32:41.569Z,17.53
2018-10-16T10:33:41.773Z,17.6
2018-10-16T10:34:41.275Z,17.67
2018-10-16T10:35:41.568Z,17.77
2018-10-16T10:36:41.385Z,17.78
2018-10-16T10:37:41.294Z,17.76
2018-10-16T10:38:41.320Z,17.73
2018-10-16T10:39:41.301Z,17.76
2018-10-16T10:40:41.390Z,17.74
2018-10-16T10:41:41.289Z,17.8
2018-10-16T10:42:41.406Z,17.84
2018-10-16T10:43:41.243Z,17.88
2018-10-16T10:44:41.336Z,17.89
2018-10-16T10:45:41.429Z,17.95
2018-10-16T10:46:41.229Z,17.94
2018-10-16T10:47:41.664Z,17.95
2018-10-16T10:48:41.276Z,17.95
2018-10-16T10:49:41.345Z,17.99
2018-10-16T10:50:42.606Z,18.04
2018-10-16T10:51:42.523Z,18.05
2018-10-16T10:52:41.376Z,18.17
2018-10-16T10:53:41.235Z,18.22
2018-10-16T10:54:41.237Z,18.2
2018-10-16T10:55:41.260Z,18.25
2018-10-16T10:56:41.622Z,18.27
2018-10-16T10:57:41.434Z,18.27
2018-10-16T10:58:41.419Z,18.29
2018-10-16T10:59:41.287Z,18.3
2018-10-16T11:00:41.279Z,18.33
2018-10-16T11:01:41.430Z,18.4
2018-10-16T11:02:41.256Z,18.43
2018-10-16T11:03:42.681Z,18.44
2018-10-16T11:04:41.351Z,18.43
2018-10-16T11:05:41.379Z,18.47
2018-10-16T11:06:41.197Z,18.47
2018-10-16T11:07:41.761Z,18.56
2018-10-16T11:08:41.363Z,18.64
2018-10-16T11:09:41.242Z,18.59
2018-10-16T11:10:41.340Z,18.6
2018-10-16T11:11:40.822Z,18.63
2018-10-16T11:12:41.410Z,18.61
2018-10-16T11:13:41.194Z,18.59
2018-10-16T11:14:41.557Z,18.63
2018-10-16T11:15:41.454Z,18.63
2018-10-16T11:16:41.202Z,18.63
2018-10-16T11:17:41.307Z,18.64
2018-10-16T11:18:41.280Z,18.67
2018-10-16T11:19:41.262Z,18.78
2018-10-16T11:20:41.353Z,18.84
2018-10-16T11:21:41.234Z,18.89
2018-10-16T11:22:41.340Z,18.92
2018-10-16T11:23:41.254Z,18.94
2018-10-16T11:24:41.399Z,18.94
2018-10-16T11:25:41.231Z,19.01
2018-10-16T11:26:41.324Z,19.06
2018-10-16T11:27:41.435Z,19.09
2018-10-16T11:28:41.252Z,19.19
2018-10-16T11:29:41.376Z,19.25
2018-10-16T11:30:41.481Z,19.26
2018-10-16T11:31:41.252Z,19.29
2018-10-16T11:32:41.207Z,19.37
2018-10-16T11:33:41.208Z,19.37
2018-10-16T11:34:41.233Z,19.37
2018-10-16T11:35:41.248Z,19.39
2018-10-16T11:36:41.582Z,19.44
2018-10-16T11:37:41.700Z,19.5
2018-10-16T11:38:41.235Z,19.54
2018-10-16T11:39:41.163Z,19.58
2018-10-16T11:40:41.172Z,19.61
2018-10-16T11:41:41.225Z,19.64
2018-10-16T11:42:41.530Z,19.7
2018-10-16T11:43:41.134Z,19.7
2018-10-16T11:44:41.440Z,19.82
2018-10-16T11:45:41.538Z,19.81
2018-10-16T11:46:41.371Z,19.89
2018-10-16T11:47:41.271Z,19.89
2018-10-16T11:48:41.256Z,19.93
2018-10-16T11:49:41.161Z,19.91
2018-10-16T11:50:41.495Z,19.91
2018-10-16T11:51:41.201Z,19.88
2018-10-16T11:52:41.508Z,19.91
2018-10-16T11:53:41.185Z,19.91
2018-10-16T11:54:41.654Z,19.98
2018-10-16T11:55:41.186Z,19.93
2018-10-16T11:56:41.264Z,19.96
2018-10-16T11:57:41.416Z,20.02
2018-10-16T11:58:41.200Z,20.05
2018-10-16T11:59:41.176Z,20.08
2018-10-16T12:00:41.347Z,20.08
2018-10-16T12:01:41.150Z,20.12
2018-10-16T12:02:41.667Z,20.2
2018-10-16T12:03:41.161Z,20.26
2018-10-16T12:04:41.236Z,20.22
2018-10-16T12:05:41.221Z,20.22
2018-10-16T12:06:41.212Z,20.23
2018-10-16T12:07:41.216Z,20.27
2018-10-16T12:08:41.532Z,20.3
2018-10-16T12:09:41.410Z,20.32
2018-10-16T12:10:41.303Z,20.32
2018-10-16T12:11:41.180Z,20.37
2018-10-16T12:12:41.187Z,20.39
2018-10-16T12:13:41.202Z,20.39
2018-10-16T12:14:41.399Z,20.51
2018-10-16T12:15:41.153Z,20.51
2018-10-16T12:16:41.734Z,20.55
2018-10-16T12:17:41.344Z,20.58
2018-10-16T12:18:41.176Z,20.55
2018-10-16T12:19:41.899Z,20.7
2018-10-16T12:20:41.247Z,20.7
2018-10-16T12:21:41.125Z,20.67
2018-10-16T12:22:41.301Z,20.75
2018-10-16T12:23:42.125Z,20.7
2018-10-16T12:24:41.278Z,20.71
2018-10-16T12:25:41.174Z,20.75
2018-10-16T12:26:41.179Z,20.82
2018-10-16T12:27:41.335Z,20.95
2018-10-16T12:28:41.130Z,20.96
2018-10-16T12:29:41.199Z,20.91
2018-10-16T12:30:41.348Z,20.87
2018-10-16T12:31:41.112Z,21.23
2018-10-16T12:32:41.298Z,21.32
2018-10-16T12:33:41.238Z,21.2
2018-10-16T12:34:41.219Z,21.15
2018-10-16T12:35:41.348Z,21.1
2018-10-16T12:36:41.152Z,21.09
2018-10-16T12:37:41.234Z,21.07
2018-10-16T12:38:41.275Z,21.15
2018-10-16T12:39:41.349Z,21.09
2018-10-16T12:40:41.296Z,21.2
2018-10-16T12:41:41.232Z,21.22
2018-10-16T12:42:41.429Z,21.23
2018-10-16T12:43:42.459Z,21.32
2018-10-16T12:44:41.149Z,21.26
2018-10-16T12:45:42.373Z,21.32
2018-10-16T12:46:41.119Z,21.33
2018-10-16T12:47:41.126Z,21.36
2018-10-16T12:48:41.198Z,21.32
2018-10-16T12:49:41.155Z,21.3
2018-10-16T12:50:41.266Z,21.27
2018-10-16T12:51:41.097Z,21.32
2018-10-16T12:52:41.210Z,21.39
2018-10-16T12:53:41.155Z,21.39
2018-10-16T12:54:41.116Z,21.37
2018-10-16T12:55:41.304Z,21.36
2018-10-16T12:56:41.508Z,21.37
2018-10-16T12:57:41.088Z,21.34
2018-10-16T12:58:41.096Z,21.33
2018-10-16T12:59:41.085Z,21.32
2018-10-16T13:00:41.253Z,21.3
2018-10-16T13:01:41.091Z,21.32